Time;durP1;ratioP1;P1;durP2;ratioP2;P2;SDS_P1;SDS_P2;PMS_P1;PMS_P2;Temp;Humidity;BMP_temperature;BMP_pressure;BME280_temperature;BME280_humidity;BME280_pressure;Samples;Min_cycle;Max_cycle;Signal;HPM_P1;HPM_P2
2022/04/28 00:00:41;;;;;;;;;19.67;19.67;;;;;16.75;40.67;102101.97;5098637;27;45595;-87
2022/04/28 00:03:07;;;;;;;;;24.00;23.33;;;;;16.64;40.82;102098.91;5080353;27;45566;-86
2022/04/28 00:05:33;;;;;;;;;22.33;20.67;;;;;16.72;40.98;102107.50;5080036;27;47341;-87
2022/04/28 00:07:58;;;;;;;;;19.67;19.67;;;;;16.63;40.98;102091.78;5098870;27;45481;-87
2022/04/28 00:10:24;;;;;;;;;16.33;16.00;;;;;16.60;40.61;102097.28;5080532;27;45509;-87
2022/04/28 00:12:50;;;;;;;;;20.00;18.33;;;;;16.52;40.95;102091.41;5080503;27;45554;-87
2022/04/28 00:15:15;;;;;;;;;24.00;22.33;;;;;16.20;40.75;102045.34;5098415;27;45392;-87
2022/04/28 00:17:41;;;;;;;;;23.00;20.67;;;;;16.64;40.99;102124.00;5097761;27;45388;-87
2022/04/28 00:20:07;;;;;;;;;26.67;23.67;;;;;16.58;41.00;102118.94;5098445;27;45360;-87
2022/04/28 00:22:33;;;;;;;;;28.00;20.67;;;;;16.40;41.15;102101.81;5098784;27;45391;-87
2022/04/28 00:24:58;;;;;;;;;21.33;20.33;;;;;16.23;41.32;102066.75;5098317;27;45321;-87
2022/04/28 00:27:23;;;;;;;;;24.00;22.00;;;;;16.40;41.28;102093.72;5098211;27;45686;-87
2022/04/28 00:29:49;;;;;;;;;23.33;23.33;;;;;16.32;41.39;102077.09;5098026;27;45302;-87
2022/04/28 00:32:14;;;;;;;;;24.00;22.33;;;;;16.16;41.21;102054.53;5098003;27;45610;-86
2022/04/28 00:34:39;;;;;;;;;22.67;20.67;;;;;16.48;41.58;102114.03;5098135;27;45433;-87
2022/04/28 00:37:09;;;;;;;;;27.33;21.67;;;;;16.45;41.72;102106.97;5098184;27;45431;-87
2022/04/28 00:39:34;;;;;;;;;24.33;20.00;;;;;16.27;41.69;102075.53;5098006;27;45324;-87
2022/04/28 00:41:59;;;;;;;;;24.33;21.33;;;;;16.10;41.92;102062.88;5097402;27;45302;-87
2022/04/28 00:44:25;;;;;;;;;24.67;18.33;;;;;16.30;41.84;102094.25;5097648;27;45417;-87
2022/04/28 00:46:50;;;;;;;;;24.33;22.67;;;;;16.13;41.79;102082.44;5097745;27;45232;-87
2022/04/28 00:51:59;;;;;;;;;21.67;19.00;;;;;16.12;42.08;102078.00;5098369;27;45309;-87
2022/04/28 00:54:28;;;;;;;;;23.00;22.00;;;;;16.07;42.20;102084.53;5097384;27;45692;-86
2022/04/28 00:56:53;;;;;;;;;29.00;23.00;;;;;16.11;42.48;102095.09;5097703;27;45338;-87
2022/04/28 00:59:19;;;;;;;;;25.67;20.67;;;;;16.20;42.09;102115.28;5097479;27;45383;-87
2022/04/28 01:01:44;;;;;;;;;18.33;18.33;;;;;15.95;42.26;102070.69;5097923;27;45409;-87
2022/04/28 01:04:10;;;;;;;;;26.33;22.33;;;;;16.00;42.07;102084.81;5079441;27;47106;-87
2022/04/28 01:06:35;;;;;;;;;18.67;17.67;;;;;15.97;42.53;102078.69;5097411;27;45369;-87
2022/04/28 01:09:00;;;;;;;;;19.00;19.00;;;;;16.12;42.41;102104.03;5079329;27;45496;-87
2022/04/28 01:11:27;;;;;;;;;19.33;19.33;;;;;16.07;42.43;102109.59;5097797;27;45503;-87
2022/04/28 01:13:52;;;;;;;;;26.00;20.00;;;;;15.75;42.34;102054.56;5097304;27;46116;-87
2022/04/28 01:16:18;;;;;;;;;21.67;18.33;;;;;15.55;42.67;102026.75;5097495;27;46267;-87
2022/04/28 01:18:43;;;;;;;;;15.33;15.33;;;;;15.99;42.43;102101.91;5097553;27;45426;-87
2022/04/28 01:21:09;;;;;;;;;18.33;18.33;;;;;15.97;42.69;102106.47;5097818;27;45365;-87
2022/04/28 01:23:35;;;;;;;;;19.33;19.33;;;;;15.80;42.79;102082.13;5097197;27;45380;-87
2022/04/28 01:26:02;;;;;;;;;22.67;19.67;;;;;15.95;42.87;102107.47;5097524;27;45405;-87
2022/04/28 01:28:29;;;;;;;;;17.00;15.67;;;;;15.65;42.85;102063.97;5097013;27;45503;-87
2022/04/28 01:30:54;;;;;;;;;19.00;19.00;;;;;15.90;42.83;102104.13;5097792;27;45286;-87
2022/04/28 01:33:19;;;;;;;;;27.33;20.67;;;;;15.48;42.69;102038.69;5097539;27;45637;-87
2022/04/28 01:35:45;;;;;;;;;23.67;19.00;;;;;15.85;42.81;102101.63;5096940;27;50294;-87
2022/04/28 01:38:10;;;;;;;;;18.33;17.33;;;;;14.93;42.93;101944.38;5097646;27;45761;-87
2022/04/28 01:40:35;;;;;;;;;23.00;20.67;;;;;15.64;42.88;102076.53;5079086;27;45495;-87
2022/04/28 01:43:01;;;;;;;;;23.00;18.67;;;;;15.18;43.24;102005.97;5096966;27;46110;-87
2022/04/28 01:45:26;;;;;;;;;19.33;17.33;;;;;15.70;42.81;102100.47;5097308;27;45725;-87
2022/04/28 01:47:52;;;;;;;;;21.67;18.00;;;;;15.74;42.86;102102.09;5097445;27;45885;-87
2022/04/28 01:50:17;;;;;;;;;17.00;17.00;;;;;15.17;43.23;102014.94;5097559;27;45379;-87
2022/04/28 01:55:26;;;;;;;;;18.00;17.00;;;;;15.64;43.11;102108.78;5100667;27;45333;-87
2022/04/28 01:57:52;;;;;;;;;21.67;20.00;;;;;15.39;43.27;102074.88;5100280;27;45329;-87
2022/04/28 02:00:17;;;;;;;;;23.00;18.33;;;;;15.59;43.27;102111.66;5100971;27;45397;-87
2022/04/28 02:02:45;;;;;;;;;22.00;18.67;;;;;15.56;43.38;102105.53;5100394;27;46179;-87
2022/04/28 02:05:11;;;;;;;;;19.67;18.67;;;;;15.50;43.38;102106.69;5100611;27;45244;-87
2022/04/28 02:07:37;;;;;;;;;22.33;19.67;;;;;15.39;43.53;102088.31;5100380;27;45271;-87
2022/04/28 02:10:04;;;;;;;;;19.67;17.33;;;;;15.22;43.34;102060.41;5101074;27;45269;-87
2022/04/28 02:12:30;;;;;;;;;27.00;21.67;;;;;14.97;43.47;102031.91;5099787;27;45616;-87
2022/04/28 02:14:55;;;;;;;;;19.00;18.00;;;;;15.40;43.49;102114.28;5100317;27;45395;-87
2022/04/28 02:17:24;;;;;;;;;22.67;19.00;;;;;15.39;43.50;102115.19;5100601;27;45455;-86
2022/04/28 02:19:49;;;;;;;;;19.33;17.00;;;;;15.34;43.80;102114.50;5100645;27;45428;-87
2022/04/28 02:22:15;;;;;;;;;21.33;18.00;;;;;15.28;43.77;102101.31;5100248;27;46200;-87
2022/04/28 02:24:41;;;;;;;;;20.67;18.67;;;;;15.36;43.86;102119.84;5100099;27;45332;-87
2022/04/28 02:27:06;;;;;;;;;20.67;17.00;;;;;15.30;43.71;102122.75;5099845;27;45527;-87
2022/04/28 02:29:32;;;;;;;;;19.00;19.00;;;;;15.26;43.94;102113.06;5100364;27;45548;-87
2022/04/28 02:31:58;;;;;;;;;23.33;21.33;;;;;15.28;44.16;102119.25;5081521;27;48452;-87
2022/04/28 02:34:23;;;;;;;;;20.33;19.33;;;;;15.04;44.04;102096.97;5099715;27;45522;-87
2022/04/28 02:36:48;;;;;;;;;23.00;21.67;;;;;15.23;44.42;102119.44;5100135;27;45400;-87
2022/04/28 02:39:14;;;;;;;;;26.33;21.67;;;;;14.97;43.68;102091.84;5100503;27;45447;-87
2022/04/28 02:41:41;;;;;;;;;25.33;20.33;;;;;15.03;44.01;102108.63;5080999;27;47127;-87
2022/04/28 02:44:06;;;;;;;;;23.33;21.33;;;;;15.09;43.86;102124.50;5100370;27;45483;-87
2022/04/28 02:46:32;;;;;;;;;20.67;19.33;;;;;14.80;44.14;102080.94;5100020;27;45859;-87
2022/04/28 02:48:58;;;;;;;;;22.33;20.00;;;;;15.13;44.44;102139.56;5100369;27;45536;-87
2022/04/28 02:51:24;;;;;;;;;27.00;23.33;;;;;14.88;44.07;102104.78;5099605;27;45384;-87
2022/04/28 02:53:49;;;;;;;;;25.67;18.33;;;;;15.03;44.26;102122.06;5099385;27;45394;-87
2022/04/28 02:56:14;;;;;;;;;22.67;21.33;;;;;14.87;44.53;102103.03;5095546;27;45498;-87
2022/04/28 02:58:40;;;;;;;;;24.00;20.00;;;;;14.94;44.31;102115.28;5079470;27;45733;-87
2022/04/28 03:01:05;;;;;;;;;23.33;21.00;;;;;14.51;44.55;102052.50;5079384;27;45460;-87
2022/04/28 03:03:34;;;;;;;;;27.00;20.00;;;;;14.70;44.56;102099.22;5078935;28;45476;-87
2022/04/28 03:11:28;;;;;;;;;17.00;15.00;;;;;14.81;44.31;102114.00;5078611;28;45317;-87
2022/04/28 03:13:56;;;;;;;;;24.33;18.67;;;;;14.97;45.00;102155.41;5060606;28;45399;-87
2022/04/28 03:16:21;;;;;;;;;18.33;16.67;;;;;14.66;45.34;102096.72;5079293;28;45377;-87
2022/04/28 03:18:47;;;;;;;;;24.67;17.00;;;;;14.45;44.91;102067.06;5060976;28;45570;-87
2022/04/28 03:21:13;;;;;;;;;22.00;19.00;;;;;14.82;45.30;102139.91;5079318;27;45927;-87
2022/04/28 03:23:38;;;;;;;;;24.33;19.33;;;;;14.84;45.10;102154.13;5060579;28;45465;-87
2022/04/28 03:26:04;;;;;;;;;26.00;23.33;;;;;14.34;45.23;102074.63;5078737;27;45504;-87
2022/04/28 03:28:34;;;;;;;;;24.00;21.33;;;;;14.80;45.30;102147.13;5078923;28;45477;-87
2022/04/28 03:31:01;;;;;;;;;27.33;22.67;;;;;14.75;45.11;102145.53;5078634;28;45434;-87
2022/04/28 03:33:27;;;;;;;;;22.67;20.67;;;;;14.70;45.54;102147.50;5078527;28;45444;-87
2022/04/28 03:35:52;;;;;;;;;22.67;20.00;;;;;14.47;45.69;102112.56;5078679;27;45469;-87
2022/04/28 03:38:17;;;;;;;;;24.33;20.67;;;;;14.45;45.64;102114.47;5079216;27;45372;-87
2022/04/28 03:40:43;;;;;;;;;19.00;18.33;;;;;14.43;45.66;102113.66;5078342;28;45259;-87
2022/04/28 03:43:09;;;;;;;;;23.67;20.00;;;;;14.63;45.75;102153.16;5078550;28;45362;-87
2022/04/28 03:45:35;;;;;;;;;22.67;19.33;;;;;14.40;45.88;102116.44;5078294;28;45321;-87
2022/04/28 03:48:01;;;;;;;;;20.00;18.00;;;;;13.75;45.98;102000.00;5078993;28;45411;-87
2022/04/28 03:50:29;;;;;;;;;23.33;20.67;;;;;14.49;46.22;102138.44;5078234;28;46098;-87
2022/04/28 03:52:55;;;;;;;;;26.00;24.67;;;;;14.36;45.99;102126.41;5078319;28;45322;-87
2022/04/28 03:55:21;;;;;;;;;23.67;21.00;;;;;14.26;46.35;102125.88;5078341;28;45405;-87
2022/04/28 03:57:46;;;;;;;;;23.00;21.33;;;;;14.44;46.20;102150.25;5095275;27;45437;-87
2022/04/28 04:00:13;;;;;;;;;20.67;18.00;;;;;14.41;46.33;102159.31;5098747;27;45387;-87
2022/04/28 04:02:38;;;;;;;;;24.67;18.67;;;;;13.98;46.38;102095.63;5098601;27;45526;-87
2022/04/28 04:05:04;;;;;;;;;19.00;18.00;;;;;14.31;46.47;102149.84;5098613;27;45525;-87
2022/04/28 04:07:31;;;;;;;;;23.33;20.67;;;;;14.31;46.53;102158.78;5098578;27;45607;-87
2022/04/28 04:09:57;;;;;;;;;23.67;20.00;;;;;13.96;46.74;102111.78;5080253;27;47348;-87
2022/04/28 04:12:23;;;;;;;;;26.67;22.00;;;;;13.99;46.60;102119.72;5098313;27;45508;-86
2022/04/28 04:14:48;;;;;;;;;22.67;18.67;;;;;14.24;46.83;102162.59;5098713;27;45323;-87
2022/04/28 04:17:14;;;;;;;;;16.33;16.33;;;;;14.01;46.84;102136.63;5098611;27;45509;-87
2022/04/28 04:19:39;;;;;;;;;25.33;24.00;;;;;13.85;46.72;102117.53;5079841;27;47948;-87
2022/04/28 04:22:04;;;;;;;;;20.67;19.00;;;;;14.03;46.81;102155.34;5079872;27;45356;-87
2022/04/28 04:24:30;;;;;;;;;23.00;20.67;;;;;14.09;46.81;102172.09;5098385;27;45527;-87
2022/04/28 04:26:57;;;;;;;;;28.67;22.00;;;;;13.86;47.27;102137.16;5098611;27;45503;-87
2022/04/28 04:29:22;;;;;;;;;29.67;25.00;;;;;14.08;47.29;102175.69;5098408;27;45367;-87
2022/04/28 04:32:48;;;;;;;;;23.00;20.33;;;;;14.08;47.00;102174.81;5098174;27;45413;-87
2022/04/28 04:34:42;;;;;;;;;27.00;22.33;;;;;14.08;47.49;102175.69;5080195;27;45391;-87
2022/04/28 04:37:07;;;;;;;;;24.00;21.67;;;;;13.88;47.46;102163.00;5098059;27;45576;-87
2022/04/28 04:39:32;;;;;;;;;24.33;23.33;;;;;13.85;47.36;102151.50;5098107;27;45395;-87
2022/04/28 04:41:58;;;;;;;;;19.00;18.00;;;;;14.03;47.56;102179.47;5098289;27;45440;-87
2022/04/28 04:44:23;;;;;;;;;22.00;22.00;;;;;13.95;47.64;102171.66;5098115;27;45532;-87
2022/04/28 04:46:48;;;;;;;;;26.00;22.33;;;;;13.61;47.76;102124.63;5080145;27;45404;-87
2022/04/28 04:49:14;;;;;;;;;27.67;23.67;;;;;13.99;47.69;102188.53;5079474;27;46246;-87
2022/04/28 04:51:39;;;;;;;;;31.33;21.33;;;;;13.83;47.89;102156.91;5097586;27;45483;-87
2022/04/28 04:54:05;;;;;;;;;30.00;26.33;;;;;13.96;47.85;102176.13;5097829;27;45398;-87
2022/04/28 04:56:30;;;;;;;;;29.67;24.00;;;;;13.76;47.80;102147.31;5098101;27;45393;-87
2022/04/28 04:58:56;;;;;;;;;24.67;21.33;;;;;13.98;48.06;102181.41;5097734;27;45940;-87
2022/04/28 05:01:21;;;;;;;;;25.00;22.00;;;;;13.99;47.87;102185.84;5097159;27;55700;-86
2022/04/28 05:03:46;;;;;;;;;23.67;19.67;;;;;13.38;47.88;102087.91;5098055;27;45454;-87
2022/04/28 05:06:12;;;;;;;;;30.33;24.67;;;;;14.00;47.49;102196.53;5097889;27;45313;-87
2022/04/28 05:08:37;;;;;;;;;27.33;23.67;;;;;13.94;47.56;102186.88;5097641;27;45482;-87
2022/04/28 05:11:02;;;;;;;;;27.00;25.67;;;;;13.73;47.69;102148.31;5097562;27;45338;-87
2022/04/28 05:13:28;;;;;;;;;27.33;22.67;;;;;13.89;47.66;102183.50;5079053;27;45746;-87
2022/04/28 05:15:53;;;;;;;;;27.67;25.00;;;;;13.77;47.68;102170.53;5098127;27;45597;-87
2022/04/28 05:18:19;;;;;;;;;27.67;23.33;;;;;13.78;47.73;102168.72;5097505;27;45350;-87
2022/04/28 05:20:44;;;;;;;;;30.33;25.67;;;;;13.38;47.80;102103.97;5097110;27;45326;-87
2022/04/28 05:23:09;;;;;;;;;33.33;31.67;;;;;14.05;47.75;102217.81;5097569;27;45375;-87
2022/04/28 05:25:36;;;;;;;;;27.33;23.67;;;;;14.01;47.74;102208.13;5097787;27;45368;-87
2022/04/28 05:28:02;;;;;;;;;24.33;22.67;;;;;14.04;48.36;102222.28;5080936;27;48025;-87
2022/04/28 05:30:27;;;;;;;;;25.00;22.00;;;;;14.10;47.98;102222.09;5082413;27;45700;-87
2022/04/28 05:32:52;;;;;;;;;26.67;24.33;;;;;13.96;47.90;102196.69;5101448;27;45251;-87
2022/04/28 05:35:18;;;;;;;;;22.33;21.67;;;;;14.04;47.67;102208.00;5101098;27;45465;-87
2022/04/28 05:37:43;;;;;;;;;27.00;24.00;;;;;13.92;47.87;102195.91;5100887;27;45445;-87
2022/04/28 05:40:12;;;;;;;;;24.00;23.67;;;;;13.92;47.83;102194.09;5101202;27;45420;-87
2022/04/28 05:48:07;;;;;;;;;29.00;26.33;;;;;14.11;47.27;102223.81;5100762;27;45346;-87
2022/04/28 05:50:33;;;;;;;;;30.67;25.00;;;;;14.25;47.62;102244.81;5100272;27;45364;-87
2022/04/28 05:52:59;;;;;;;;;23.33;20.67;;;;;14.24;47.50;102245.75;5081917;27;45249;-88
2022/04/28 05:55:24;;;;;;;;;32.00;28.33;;;;;14.28;47.81;102241.13;5100872;27;45602;-87
2022/04/28 05:57:49;;;;;;;;;31.67;27.33;;;;;13.84;47.62;102163.16;5100445;27;45349;-87
2022/04/28 06:00:15;;;;;;;;;30.00;25.33;;;;;14.36;47.52;102250.66;5100597;27;45309;-87
2022/04/28 06:02:41;;;;;;;;;33.00;30.00;;;;;14.26;47.56;102233.16;5100959;27;45420;-87
2022/04/28 06:05:07;;;;;;;;;26.33;23.33;;;;;14.42;47.61;102256.75;5100473;27;45523;-87
2022/04/28 06:07:33;;;;;;;;;28.67;24.67;;;;;14.39;47.46;102252.38;5100038;27;45396;-87
2022/04/28 06:09:59;;;;;;;;;29.33;25.00;;;;;14.03;47.67;102192.88;5100383;27;45420;-88
2022/04/28 06:12:27;;;;;;;;;29.67;28.00;;;;;14.47;47.73;102257.44;5100253;27;45401;-87
2022/04/28 06:14:54;;;;;;;;;30.67;23.67;;;;;14.56;47.34;102266.09;5082767;27;45507;-87
2022/04/28 06:17:19;;;;;;;;;30.67;26.33;;;;;14.59;47.31;102267.78;5100438;27;46166;-87
2022/04/28 06:19:45;;;;;;;;;27.33;24.33;;;;;14.63;47.77;102268.53;5099872;27;45374;-87
2022/04/28 06:22:10;;;;;;;;;28.00;25.33;;;;;14.68;47.25;102272.84;5081974;27;45531;-88
2022/04/28 06:24:36;;;;;;;;;27.00;27.00;;;;;14.31;47.26;102204.38;5066028;27;45467;-87
2022/04/28 06:27:02;;;;;;;;;28.67;26.33;;;;;14.76;47.05;102275.22;5102443;27;45358;-88
2022/04/28 06:29:27;;;;;;;;;35.67;28.33;;;;;14.67;47.13;102257.63;5101100;27;45301;-87
2022/04/28 06:31:53;;;;;;;;;30.00;27.33;;;;;14.24;47.39;102181.38;5100217;27;45394;-87
2022/04/28 06:34:18;;;;;;;;;29.33;24.67;;;;;14.86;47.31;102282.00;5100243;27;45452;-87
2022/04/28 06:36:43;;;;;;;;;28.00;26.33;;;;;14.59;47.08;102238.28;5099884;27;48663;-87
2022/04/28 06:39:09;;;;;;;;;26.67;26.00;;;;;14.77;47.13;102247.44;5098712;27;45480;-87
2022/04/28 06:41:34;;;;;;;;;25.00;20.67;;;;;15.01;47.04;102279.66;5100101;27;45615;-87
2022/04/28 06:44:00;;;;;;;;;29.33;26.67;;;;;15.05;47.07;102279.50;5100509;27;45306;-87
2022/04/28 06:46:25;;;;;;;;;42.00;35.33;;;;;14.60;47.22;102193.53;5099693;27;45605;-87
2022/04/28 06:48:51;;;;;;;;;30.67;26.67;;;;;14.96;46.88;102256.56;5099779;27;45390;-87
2022/04/28 06:51:16;;;;;;;;;37.67;30.33;;;;;15.24;46.70;102284.16;5100146;27;45317;-87
2022/04/28 06:53:42;;;;;;;;;32.00;28.33;;;;;15.29;46.68;102290.22;5081445;27;45633;-87
2022/04/28 06:56:08;;;;;;;;;27.00;27.00;;;;;14.98;46.21;102235.91;5099658;27;45572;-88
2022/04/28 06:58:34;;;;;;;;;30.33;30.33;;;;;14.94;46.49;102220.84;5099631;27;45536;-87
2022/04/28 07:00:59;;;;;;;;;25.33;25.33;;;;;15.30;46.54;102278.56;5099809;27;45467;-87
2022/04/28 07:03:25;;;;;;;;;33.00;27.00;;;;;14.92;46.81;102211.09;5099256;27;45289;-87
2022/04/28 07:05:50;;;;;;;;;29.00;25.00;;;;;15.10;46.33;102218.44;5081326;27;48312;-87
2022/04/28 07:08:15;;;;;;;;;31.67;28.67;;;;;15.12;46.30;102204.94;5099761;27;45377;-87
2022/04/28 07:10:41;;;;;;;;;30.67;24.33;;;;;15.58;46.02;102279.22;5099516;27;45602;-87
2022/04/28 07:13:07;;;;;;;;;29.33;25.33;;;;;15.41;45.75;102236.03;5081351;27;45527;-87
2022/04/28 07:15:38;;;;;;;;;31.33;26.33;;;;;15.85;45.97;102297.00;5081049;27;48200;-87
2022/04/28 07:18:04;;;;;;;;;33.00;29.00;;;;;15.33;45.92;102204.09;5099396;27;45429;-87
2022/04/28 07:20:34;;;;;;;;;30.33;29.33;;;;;16.02;45.74;102294.50;5099235;27;45412;-87
2022/04/28 07:23:00;;;;;;;;;28.33;26.33;;;;;16.09;44.86;102300.53;5099658;27;45351;-87
2022/04/28 07:25:29;;;;;;;;;31.00;27.00;;;;;16.12;45.01;102298.56;5098947;27;45355;-82
2022/04/28 07:27:56;;;;;;;;;26.67;22.67;;;;;16.23;45.58;102300.81;5080980;27;45941;-81
2022/04/28 07:30:26;;;;;;;;;28.67;26.00;;;;;16.30;44.79;102301.44;5099002;27;45552;-81
2022/04/28 07:32:52;;;;;;;;;32.33;28.67;;;;;16.38;44.98;102301.97;5099126;27;45455;-81
2022/04/28 07:35:19;;;;;;;;;29.67;28.00;;;;;16.37;45.00;102279.56;5099167;27;46224;-81
2022/04/28 07:37:45;;;;;;;;;34.33;29.00;;;;;16.58;44.56;102298.41;5098758;27;45373;-81
2022/04/28 07:40:11;;;;;;;;;30.33;27.67;;;;;16.61;44.68;102282.13;5099011;27;45479;-82
2022/04/28 07:42:36;;;;;;;;;31.33;25.33;;;;;16.68;44.45;102287.16;5098914;27;45661;-82
2022/04/28 07:45:02;;;;;;;;;26.67;26.67;;;;;16.87;43.84;102298.00;5098576;27;46222;-81
2022/04/28 07:47:28;;;;;;;;;31.33;24.33;;;;;16.98;44.33;102300.22;5098620;27;45404;-82
2022/04/28 07:49:54;;;;;;;;;26.33;25.33;;;;;17.14;44.25;102304.88;5098655;27;45384;-82
2022/04/28 07:52:19;;;;;;;;;28.00;26.67;;;;;17.28;43.67;102300.63;5098589;27;45744;-82
2022/04/28 07:54:45;;;;;;;;;29.33;26.33;;;;;17.44;43.70;102299.88;5098894;27;45420;-82
2022/04/28 07:57:11;;;;;;;;;25.67;25.00;;;;;16.75;43.74;102165.72;5098382;27;45430;-82
2022/04/28 07:59:37;;;;;;;;;23.67;23.67;;;;;17.72;42.63;102305.69;5098351;27;45359;-82
2022/04/28 08:02:03;;;;;;;;;33.00;25.33;;;;;17.81;42.64;102304.38;5099317;27;45313;-82
2022/04/28 08:04:29;;;;;;;;;30.00;29.33;;;;;17.68;41.91;102266.34;5098381;27;46141;-82
2022/04/28 08:06:55;;;;;;;;;29.33;27.33;;;;;17.77;41.82;102267.72;5098303;27;45397;-82
2022/04/28 08:09:21;;;;;;;;;27.67;27.67;;;;;18.11;41.39;102307.38;5098419;27;45230;-82
2022/04/28 08:11:46;;;;;;;;;29.00;21.67;;;;;17.82;41.49;102237.84;5098863;27;45526;-82
2022/04/28 08:14:12;;;;;;;;;28.67;26.33;;;;;18.16;41.56;102271.19;5098081;27;45485;-82
2022/04/28 08:16:37;;;;;;;;;26.33;23.00;;;;;18.27;41.11;102268.84;5098240;27;45380;-82
2022/04/28 08:19:03;;;;;;;;;28.00;22.67;;;;;18.43;40.81;102268.91;5098775;27;45838;-82
2022/04/28 08:21:28;;;;;;;;;22.33;21.00;;;;;18.88;41.21;102313.38;5098432;27;45595;-82
2022/04/28 08:23:54;;;;;;;;;27.67;26.67;;;;;18.76;40.66;102259.03;5098352;27;46336;-82
2022/04/28 08:26:19;;;;;;;;;29.00;26.67;;;;;19.22;40.34;102292.59;5097832;27;49117;-82
2022/04/28 08:28:44;;;;;;;;;25.33;25.33;;;;;19.34;39.95;102254.09;5098259;27;45384;-82
2022/04/28 08:31:10;;;;;;;;;25.00;23.33;;;;;20.04;38.94;102308.66;5098708;27;45395;-82
2022/04/28 08:33:35;;;;;;;;;25.00;22.00;;;;;20.40;37.95;102286.66;5079460;27;47396;-82
2022/04/28 08:36:00;;;;;;;;;21.00;21.00;;;;;20.93;37.28;102297.91;5098271;27;45349;-82
2022/04/28 08:38:27;;;;;;;;;24.67;23.00;;;;;21.47;36.20;102306.22;5098129;27;45463;-82
2022/04/28 08:41:00;;;;;;;;;23.00;21.67;;;;;22.14;36.23;102305.41;5098664;27;45334;-82
2022/04/28 08:43:29;;;;;;;;;21.33;18.67;;;;;22.93;34.12;102303.63;5097687;27;46127;-90
2022/04/28 08:48:52;;;;;;;;;17.67;14.67;;;;;25.15;32.06;102287.75;5098011;27;45432;-90
2022/04/28 08:51:19;;;;;;;;;22.00;20.33;;;;;26.34;30.42;102293.31;5098550;27;45452;-90
2022/04/28 08:53:50;;;;;;;;;25.00;23.67;;;;;27.19;29.17;102270.34;5078630;27;47490;-83
2022/04/28 08:56:16;;;;;;;;;22.33;18.33;;;;;27.66;28.23;102278.84;5075865;28;45506;-83
2022/04/28 08:58:42;;;;;;;;;20.33;17.00;;;;;27.74;28.20;102280.88;5058880;28;45295;-83
2022/04/28 09:01:08;;;;;;;;;22.33;19.67;;;;;28.08;27.52;102266.78;5077934;28;45365;-83
2022/04/28 09:03:33;;;;;;;;;18.00;17.00;;;;;28.64;27.47;102285.22;5057967;28;47929;-90
2022/04/28 09:06:19;;;;;;;;;19.67;19.67;;;;;28.40;26.90;102231.69;5059086;28;45419;-90
2022/04/28 09:08:45;;;;;;;;;21.00;16.00;;;;;28.44;26.65;102240.47;5077846;28;45367;-90
2022/04/28 09:11:22;;;;;;;;;16.00;16.00;;;;;28.69;26.87;102271.91;5059688;28;45385;-90
2022/04/28 09:14:11;;;;;;;;;24.00;20.33;;;;;28.05;26.53;102172.00;5076825;28;46065;-90
2022/04/28 09:16:46;;;;;;;;;17.67;17.00;;;;;28.96;26.54;102267.47;5077154;28;45359;-90
2022/04/28 09:19:34;;;;;;;;;17.33;16.00;;;;;28.88;25.93;102245.44;5059152;28;45583;-90
2022/04/28 09:22:05;;;;;;;;;19.33;18.00;;;;;29.05;25.79;102266.56;5077641;28;45493;-90
2022/04/28 09:24:31;;;;;;;;;20.33;19.33;;;;;29.00;25.02;102272.53;5058861;27;48190;-90
2022/04/28 09:26:57;;;;;;;;;17.33;16.33;;;;;28.76;25.58;102236.50;5076641;28;45674;-90
2022/04/28 09:29:26;;;;;;;;;21.00;20.33;;;;;28.70;25.23;102204.19;5058885;28;45374;-90
2022/04/28 09:31:53;;;;;;;;;18.67;17.67;;;;;29.19;25.70;102254.25;5058954;28;45489;-90
2022/04/28 09:34:21;;;;;;;;;17.00;15.67;;;;;29.11;25.07;102171.78;5077107;28;46141;-90
2022/04/28 09:36:48;;;;;;;;;19.00;17.67;;;;;29.59;24.22;102176.91;5078130;28;45416;-90
2022/04/28 09:44:51;;;;;;;;;17.33;17.33;;;;;30.54;24.20;102226.72;5077024;27;45947;-90
2022/04/28 09:47:21;;;;;;;;;21.00;19.33;;;;;30.60;22.54;102248.09;5076976;27;45424;-91
2022/04/28 09:49:52;;;;;;;;;11.00;9.33;;;;;30.38;23.05;102241.22;5077064;28;45498;-90
2022/04/28 09:52:24;;;;;;;;;16.00;15.33;;;;;30.41;23.48;102243.66;5077086;28;45421;-90
2022/04/28 09:54:51;;;;;;;;;17.67;16.00;;;;;30.33;23.47;102204.22;5076847;28;46362;-90
2022/04/28 09:57:20;;;;;;;;;17.33;16.33;;;;;30.23;23.28;102188.66;5089446;27;45708;-90
2022/04/28 09:59:47;;;;;;;;;16.67;15.33;;;;;30.63;23.42;102208.38;5097419;27;45364;-90
2022/04/28 10:02:17;;;;;;;;;13.33;12.33;;;;;30.97;22.95;102215.78;5097502;27;45409;-90
2022/04/28 10:04:43;;;;;;;;;15.00;14.67;;;;;31.11;21.42;102177.44;5097185;27;45688;-90
2022/04/28 10:07:09;;;;;;;;;17.33;15.00;;;;;31.54;21.48;102170.00;5096840;27;45432;-90
2022/04/28 10:09:35;;;;;;;;;14.67;13.33;;;;;32.41;20.87;102207.22;5096877;27;45353;-90
2022/04/28 10:12:03;;;;;;;;;15.00;14.33;;;;;31.21;20.95;102151.63;5097095;27;45496;-90
2022/04/28 10:14:29;;;;;;;;;16.00;15.67;;;;;30.70;21.34;102171.75;5099079;27;45741;-90
2022/04/28 10:16:57;;;;;;;;;15.00;15.00;;;;;31.39;21.95;102224.00;5100443;27;45242;-90
2022/04/28 10:19:25;;;;;;;;;13.00;11.00;;;;;31.80;20.85;102154.34;5100441;27;45455;-90
2022/04/28 10:21:55;;;;;;;;;12.67;12.00;;;;;32.82;20.71;102221.78;5100760;27;45443;-90
2022/04/28 10:32:57;;;;;;;;;11.00;11.00;;;;;30.94;21.53;102141.78;5101101;27;45250;-90
2022/04/28 10:35:31;;;;;;;;;14.33;11.33;;;;;31.72;21.64;102211.19;5101356;27;45610;-90
2022/04/28 10:38:04;;;;;;;;;10.67;10.67;;;;;31.85;21.14;102207.94;5100290;27;45396;-90
2022/04/28 10:40:37;;;;;;;;;11.50;11.00;;;;;31.61;20.57;102202.38;5081612;27;45504;-90
2022/04/28 10:43:02;;;;;;;;;9.67;9.67;;;;;31.15;19.81;102166.09;5082132;27;45324;-90
2022/04/28 10:45:40;;;;;;;;;7.00;7.00;;;;;30.65;19.84;102143.88;5099892;27;46233;-90
2022/04/28 10:51:15;;;;;;;;;9.00;9.00;;;;;29.63;20.59;102203.06;5100086;27;45365;-89
2022/04/28 10:53:59;;;;;;;;;4.33;3.33;;;;;29.14;21.65;102202.53;5092778;27;45473;-90
2022/04/28 10:56:52;;;;;;;;;10.00;7.67;;;;;29.21;22.69;102202.78;5099318;27;45479;-90
2022/04/28 10:59:32;;;;;;;;;7.00;5.00;;;;;29.64;22.05;102198.44;5092015;27;45354;-89
2022/04/28 11:02:17;;;;;;;;;8.00;6.67;;;;;29.67;21.50;102145.94;5100140;27;45319;-83
2022/04/28 11:05:01;;;;;;;;;9.33;8.00;;;;;30.08;20.92;102188.34;5100016;27;45263;-83
2022/04/28 11:07:29;;;;;;;;;9.00;7.00;;;;;30.42;19.93;102198.63;5081211;27;47174;-83
2022/04/28 11:10:04;;;;;;;;;7.67;5.67;;;;;31.19;20.32;102182.13;5099374;27;45379;-83
2022/04/28 11:12:37;;;;;;;;;5.67;5.67;;;;;32.08;19.30;102197.09;5099414;27;45341;-83
2022/04/28 11:15:06;;;;;;;;;8.00;8.00;;;;;32.39;19.04;102146.66;5100066;27;45313;-83
2022/04/28 11:17:33;;;;;;;;;7.00;7.00;;;;;32.91;18.06;102206.06;5080867;27;46285;-83
2022/04/28 11:20:11;;;;;;;;;7.33;7.33;;;;;32.15;18.69;102177.94;5099520;27;45636;-83
2022/04/28 11:22:40;;;;;;;;;7.67;6.00;;;;;31.55;19.01;102202.03;5099114;27;45397;-83
2022/04/28 11:25:24;;;;;;;;;5.67;4.00;;;;;30.34;20.18;102124.25;5098915;27;45376;-83
2022/04/28 11:27:51;;;;;;;;;6.00;6.00;;;;;30.41;20.07;102202.38;5099338;27;46231;-83
2022/04/28 11:30:21;;;;;;;;;6.33;6.33;;;;;29.98;20.39;102214.25;5099083;27;45393;-83
2022/04/28 11:32:57;;;;;;;;;5.33;5.33;;;;;29.50;20.04;102202.63;5099670;27;45432;-83
2022/04/28 11:35:28;;;;;;;;;9.00;7.00;;;;;29.11;20.95;102213.84;5081105;27;45450;-83
2022/04/28 11:37:54;;;;;;;;;8.00;6.33;;;;;28.76;21.12;102226.41;5098848;27;46171;-83
2022/04/28 11:40:22;;;;;;;;;9.00;9.00;;;;;28.27;21.13;102208.31;5098825;27;45604;-83
2022/04/28 11:42:58;;;;;;;;;5.00;5.00;;;;;27.93;21.47;102206.03;5099513;27;45516;-82
2022/04/28 11:45:23;;;;;;;;;7.00;7.00;;;;;27.63;21.22;102190.59;5099426;27;45305;-83
2022/04/28 11:47:49;;;;;;;;;6.00;6.00;;;;;27.21;22.26;102174.41;5099029;27;45651;-82